createdAt,value
2018-05-08T00:01:31.473Z,99.90
2018-05-08T00:03:59.149Z,99.90
2018-05-08T00:06:26.745Z,99.90
2018-05-08T00:08:54.353Z,99.90
2018-05-08T00:11:21.935Z,99.90
2018-05-08T00:13:50.274Z,99.90
2018-05-08T00:16:18.186Z,99.90
2018-05-08T00:18:46.521Z,99.90
2018-05-08T00:21:14.077Z,99.90
2018-05-08T00:23:41.632Z,99.90
2018-05-08T00:26:09.952Z,99.90
2018-05-08T00:28:37.503Z,99.90
2018-05-08T00:31:05.139Z,99.90
2018-05-08T00:33:32.757Z,99.90
2018-05-08T00:36:00.310Z,99.90
2018-05-08T00:38:28.646Z,99.90
2018-05-08T00:40:56.261Z,99.90
2018-05-08T00:43:23.857Z,99.90
2018-05-08T00:45:51.432Z,99.90
2018-05-08T00:48:19.068Z,99.90
2018-05-08T00:50:46.649Z,99.90
2018-05-08T00:53:14.239Z,99.90
2018-05-08T00:55:42.674Z,99.90
2018-05-08T00:58:10.269Z,99.90
2018-05-08T01:00:37.825Z,99.90
2018-05-08T01:03:05.400Z,99.90
2018-05-08T01:05:32.977Z,99.90
2018-05-08T01:08:00.612Z,99.90
2018-05-08T01:10:28.247Z,99.90
2018-05-08T01:12:55.858Z,99.90
2018-05-08T01:15:23.489Z,99.90
2018-05-08T01:17:51.094Z,99.90
2018-05-08T01:20:19.449Z,99.90
2018-05-08T01:22:47.105Z,99.90
2018-05-08T01:25:14.680Z,99.90
2018-05-08T01:27:42.340Z,99.90
2018-05-08T01:30:09.995Z,99.90
2018-05-08T01:32:37.547Z,99.90
2018-05-08T01:35:05.860Z,99.90
2018-05-08T01:37:33.677Z,99.90
2018-05-08T01:40:01.354Z,99.90
2018-05-08T01:42:28.937Z,99.90
2018-05-08T01:44:56.584Z,99.90
2018-05-08T01:47:24.179Z,99.90
2018-05-08T01:49:51.836Z,99.90
2018-05-08T01:52:19.492Z,99.90
2018-05-08T01:54:47.326Z,99.90
2018-05-08T01:57:14.942Z,99.90
2018-05-08T01:59:42.540Z,99.90
2018-05-08T02:02:10.152Z,99.90
2018-05-08T02:04:37.708Z,99.90
2018-05-08T02:07:05.284Z,99.90
2018-05-08T02:09:32.907Z,99.90
2018-05-08T02:12:00.495Z,99.90
2018-05-08T02:14:28.319Z,99.90
2018-05-08T02:16:55.917Z,99.90
2018-05-08T02:19:23.573Z,99.90
2018-05-08T02:21:51.951Z,99.90
2018-05-08T02:24:19.533Z,99.90
2018-05-08T02:26:48.028Z,99.90
2018-05-08T02:29:16.364Z,99.90
2018-05-08T02:31:43.979Z,99.90
2018-05-08T02:34:11.615Z,99.90
2018-05-08T02:36:39.214Z,99.90
2018-05-08T02:39:06.897Z,99.90
2018-05-08T02:41:34.441Z,99.90
2018-05-08T02:44:02.134Z,99.90
2018-05-08T02:46:30.492Z,99.90
2018-05-08T02:48:58.068Z,99.90
2018-05-08T02:51:25.723Z,99.90
2018-05-08T02:53:53.309Z,99.90
2018-05-08T02:56:20.914Z,99.90
2018-05-08T02:58:48.509Z,99.90
2018-05-08T03:01:16.113Z,99.90
2018-05-08T03:03:43.703Z,99.90
2018-05-08T03:06:11.296Z,99.90
2018-05-08T03:08:38.911Z,99.90
2018-05-08T03:11:06.487Z,99.90
2018-05-08T03:13:34.823Z,99.90
2018-05-08T03:16:02.478Z,99.90
2018-05-08T03:18:30.113Z,99.90
2018-05-08T03:20:57.748Z,99.90
2018-05-08T03:23:25.803Z,99.90
2018-05-08T03:25:53.441Z,99.90
2018-05-08T03:28:21.066Z,99.90
2018-05-08T03:30:48.650Z,99.90
2018-05-08T03:33:16.499Z,99.90
2018-05-08T03:35:45.001Z,99.90
2018-05-08T03:38:12.811Z,99.90
2018-05-08T03:40:43.675Z,99.90
2018-05-08T03:43:12.524Z,99.90
2018-05-08T03:50:59.391Z,99.90
2018-05-08T03:53:37.351Z,99.90
2018-05-08T04:55:44.101Z,99.90
2018-05-08T04:58:22.997Z,99.90
2018-05-08T05:00:56.782Z,99.90
2018-05-08T05:03:24.453Z,99.90
2018-05-08T05:05:52.230Z,99.90
2018-05-08T05:08:20.929Z,99.90
2018-05-08T05:10:50.862Z,99.90
2018-05-08T05:16:06.524Z,99.90
2018-05-08T05:18:35.033Z,99.90
2018-05-08T05:21:03.269Z,99.90
2018-05-08T05:23:31.843Z,90.40
2018-05-08T05:26:00.461Z,78.20
2018-05-08T05:28:28.547Z,68.70
2018-05-08T05:30:56.734Z,62.40
2018-05-08T05:33:24.807Z,57.30
2018-05-08T05:35:52.937Z,53.90
2018-05-08T05:38:20.554Z,51.00
2018-05-08T05:40:48.991Z,47.60
2018-05-08T05:43:17.002Z,47.10
2018-05-08T05:45:44.830Z,45.60
2018-05-08T05:48:12.518Z,45.20
2018-05-08T05:50:41.021Z,44.70
2018-05-08T05:53:14.704Z,43.70
2018-05-08T05:55:45.901Z,41.80
2018-05-08T05:58:13.719Z,41.80
2018-05-08T06:00:41.734Z,40.70
2018-05-08T06:03:42.320Z,40.00
2018-05-08T06:06:09.993Z,39.50
2018-05-08T06:08:37.750Z,39.70
2018-05-08T06:11:06.836Z,39.20
2018-05-08T06:13:39.024Z,37.90
2018-05-08T06:16:06.650Z,37.80
2018-05-08T06:18:34.238Z,37.10
2018-05-08T06:21:02.155Z,38.20
2018-05-08T06:23:31.306Z,37.30
2018-05-08T06:25:58.862Z,36.40
2018-05-08T06:28:26.921Z,36.70
2018-05-08T06:30:54.524Z,36.20
2018-05-08T06:33:23.555Z,37.80
2018-05-08T06:36:01.617Z,36.90
2018-05-08T06:38:29.497Z,37.50
2018-05-08T06:40:57.148Z,36.50
2018-05-08T06:43:24.761Z,35.90
2018-05-08T06:45:52.439Z,36.10
2018-05-08T06:48:20.113Z,34.80
2018-05-08T06:50:47.771Z,34.10
2018-05-08T06:53:15.752Z,33.80
2018-05-08T06:55:43.305Z,34.00
2018-05-08T06:58:11.756Z,34.50
2018-05-08T07:00:39.577Z,34.40
2018-05-08T07:03:07.971Z,34.40
2018-05-08T07:05:36.333Z,34.90
2018-05-08T07:08:14.161Z,34.80
2018-05-08T07:10:41.734Z,35.70
2018-05-08T07:13:10.253Z,35.60
2018-05-08T07:15:38.865Z,34.70
2018-05-08T07:18:06.742Z,34.60
2018-05-08T07:20:34.277Z,35.40
2018-05-08T07:23:02.598Z,34.10
2018-05-08T07:25:31.728Z,33.50
2018-05-08T07:27:59.316Z,34.20
2018-05-08T07:30:27.057Z,33.60
2018-05-08T07:32:56.153Z,34.70
2018-05-08T07:35:24.437Z,34.20
2018-05-08T07:37:52.789Z,34.40
2018-05-08T07:40:20.519Z,34.20
2018-05-08T07:42:48.076Z,34.70
2018-05-08T07:45:16.689Z,35.10
2018-05-08T07:47:44.463Z,35.10
2018-05-08T07:50:12.401Z,35.40
2018-05-08T07:52:40.429Z,35.30
2018-05-08T07:55:08.295Z,33.80
2018-05-08T07:57:36.867Z,34.20
2018-05-08T08:00:04.850Z,34.90
2018-05-08T08:02:32.428Z,35.50
2018-05-08T08:05:00.170Z,34.80
2018-05-08T08:07:27.836Z,34.50
2018-05-08T08:09:56.120Z,35.70
2018-05-08T08:12:23.837Z,35.70
2018-05-08T08:15:01.434Z,35.40
2018-05-08T08:17:28.995Z,35.90
2018-05-08T08:19:56.562Z,36.00
2018-05-08T08:22:24.208Z,36.10
2018-05-08T08:24:51.782Z,34.70
2018-05-08T08:27:19.391Z,35.60
2018-05-08T08:29:46.949Z,34.80
2018-05-08T08:32:14.622Z,33.70
2018-05-08T08:34:42.298Z,34.00
2018-05-08T08:37:09.893Z,34.00
2018-05-08T08:39:37.569Z,34.60
2018-05-08T08:42:05.204Z,33.20
2018-05-08T08:44:32.744Z,32.90
2018-05-08T08:47:01.075Z,33.20
2018-05-08T08:49:28.670Z,33.20
2018-05-08T08:51:56.482Z,34.50
2018-05-08T08:54:25.125Z,34.80
2018-05-08T08:56:52.721Z,34.20
2018-05-08T08:59:20.248Z,34.80
2018-05-08T09:01:47.784Z,34.50
2018-05-08T09:04:16.255Z,35.10
2018-05-08T09:06:43.820Z,35.10
2018-05-08T09:09:11.416Z,34.80
2018-05-08T09:11:39.008Z,33.80
2018-05-08T09:14:07.447Z,33.20
2018-05-08T09:16:36.101Z,33.20
2018-05-08T09:19:05.204Z,33.20
2018-05-08T09:21:32.853Z,32.60
2018-05-08T09:24:00.737Z,32.60
2018-05-08T09:26:28.393Z,32.50
2018-05-08T09:28:56.281Z,33.00
2018-05-08T09:31:27.493Z,33.10
2018-05-08T09:33:55.267Z,33.30
2018-05-08T09:36:22.893Z,33.10
2018-05-08T09:38:51.108Z,34.00
2018-05-08T09:41:20.613Z,35.30
2018-05-08T09:43:48.226Z,36.70
2018-05-08T09:46:15.732Z,37.20
2018-05-08T09:48:43.297Z,38.70
2018-05-08T09:51:13.809Z,39.20
2018-05-08T09:53:41.588Z,41.20
2018-05-08T09:56:09.351Z,41.80
2018-05-08T09:58:37.961Z,43.30
2018-05-08T10:01:05.610Z,43.30
2018-05-08T10:03:33.920Z,43.10
2018-05-08T10:06:02.464Z,43.30
2018-05-08T10:08:30.007Z,43.20
2018-05-08T10:10:57.588Z,43.40
2018-05-08T10:13:25.158Z,44.70
2018-05-08T10:15:52.716Z,45.10
2018-05-08T10:18:21.633Z,45.00
2018-05-08T10:20:49.204Z,44.90
2018-05-08T10:23:16.710Z,44.60
2018-05-08T10:25:44.346Z,46.00
2018-05-08T10:28:12.140Z,47.20
2018-05-08T10:30:39.676Z,45.70
2018-05-08T10:33:07.297Z,46.60
2018-05-08T10:35:35.510Z,47.00
2018-05-08T10:38:03.237Z,46.90
2018-05-08T10:40:30.764Z,46.80
2018-05-08T10:42:58.564Z,47.70
2018-05-08T10:45:26.159Z,46.90
2018-05-08T10:47:53.725Z,45.10
2018-05-08T10:50:21.281Z,45.90
2018-05-08T10:52:49.204Z,45.60
2018-05-08T10:55:17.825Z,45.30
2018-05-08T10:57:45.470Z,45.30
2018-05-08T11:00:12.990Z,45.50
2018-05-08T11:02:42.048Z,45.40
2018-05-08T11:05:13.084Z,45.50
2018-05-08T11:07:40.585Z,45.10
2018-05-08T11:10:08.440Z,45.30
2018-05-08T11:12:36.046Z,45.10
2018-05-08T11:15:03.596Z,45.10
2018-05-08T11:17:31.496Z,43.50
2018-05-08T11:19:59.157Z,42.60
2018-05-08T11:22:26.892Z,43.80
2018-05-08T11:24:54.708Z,42.90
2018-05-08T11:27:32.647Z,42.70
2018-05-08T11:30:00.364Z,43.70
2018-05-08T11:32:27.912Z,44.00
2018-05-08T11:34:56.249Z,42.50
2018-05-08T11:37:25.116Z,42.10
2018-05-08T11:42:58.873Z,42.60
2018-05-08T11:45:27.460Z,42.70
2018-05-08T11:47:56.890Z,43.60
2018-05-08T11:50:25.044Z,43.60
2018-05-08T11:52:52.710Z,43.30
2018-05-08T11:55:20.325Z,42.90
2018-05-08T11:57:48.649Z,42.60
2018-05-08T12:00:16.267Z,42.60
2018-05-08T12:02:44.980Z,44.30
2018-05-08T12:05:13.537Z,44.00
2018-05-08T12:07:41.156Z,43.90
2018-05-08T12:10:09.455Z,44.30
2018-05-08T12:12:37.622Z,44.30
2018-05-08T12:15:06.101Z,44.10
2018-05-08T12:17:34.494Z,44.60
2018-05-08T12:20:02.010Z,44.60
2018-05-08T12:22:44.102Z,43.20
2018-05-08T12:25:11.702Z,44.10
2018-05-08T12:27:39.225Z,43.50
2018-05-08T12:30:06.742Z,43.90
2018-05-08T12:32:37.520Z,43.80
2018-05-08T12:35:06.549Z,43.30
2018-05-08T12:37:34.338Z,43.00
2018-05-08T12:40:03.033Z,42.60
2018-05-08T12:42:31.369Z,42.70
2018-05-08T12:44:59.175Z,42.70
2018-05-08T12:47:26.713Z,42.60
2018-05-08T12:49:54.295Z,43.30
2018-05-08T12:52:21.855Z,41.80
2018-05-08T12:54:49.757Z,43.50
2018-05-08T12:57:17.692Z,43.00
2018-05-08T12:59:46.018Z,41.70
2018-05-08T13:02:13.593Z,41.70
2018-05-08T13:04:41.109Z,41.50
2018-05-08T13:07:09.264Z,41.90
2018-05-08T13:09:36.793Z,40.00
2018-05-08T13:12:05.341Z,40.80
2018-05-08T13:14:33.160Z,40.80
2018-05-08T13:17:01.813Z,40.40
2018-05-08T13:19:30.237Z,40.30
2018-05-08T13:21:57.775Z,41.00
2018-05-08T13:24:25.783Z,40.40
2018-05-08T13:26:53.570Z,40.10
2018-05-08T13:29:21.926Z,40.00
2018-05-08T13:31:49.500Z,39.90
2018-05-08T13:34:17.337Z,40.10
2018-05-08T13:36:44.893Z,39.90
2018-05-08T13:39:12.371Z,40.10
2018-05-08T13:41:40.673Z,40.50
2018-05-08T13:44:08.341Z,40.50
2018-05-08T13:46:36.100Z,40.30
2018-05-08T13:49:04.489Z,40.00
2018-05-08T13:51:32.751Z,40.70
2018-05-08T13:54:00.360Z,40.60
2018-05-08T13:56:28.694Z,39.90
2018-05-08T13:58:56.228Z,39.90
2018-05-08T14:01:24.557Z,40.00
2018-05-08T14:03:52.118Z,40.00
2018-05-08T14:06:19.642Z,39.20
2018-05-08T14:08:47.695Z,40.40
2018-05-08T14:11:15.206Z,41.00
2018-05-08T14:13:43.519Z,41.10
2018-05-08T14:16:11.181Z,41.00
2018-05-08T14:18:38.765Z,40.30
2018-05-08T14:21:06.290Z,40.10
2018-05-08T14:23:33.850Z,40.70
2018-05-08T14:26:01.449Z,41.40
2018-05-08T14:28:30.214Z,41.20
2018-05-08T14:30:58.334Z,41.20
2018-05-08T14:33:26.555Z,40.70
2018-05-08T14:35:54.116Z,41.40
2018-05-08T14:38:22.408Z,42.10
2018-05-08T14:40:50.697Z,40.90
2018-05-08T14:43:19.872Z,41.10
2018-05-08T14:45:47.431Z,41.10
2018-05-08T14:48:15.022Z,40.00
2018-05-08T14:50:43.606Z,40.40
2018-05-08T14:53:11.197Z,40.80
2018-05-08T14:55:39.564Z,40.70
2018-05-08T14:58:07.089Z,40.70
2018-05-08T15:00:34.689Z,40.30
2018-05-08T15:03:02.197Z,40.10
2018-05-08T15:05:29.805Z,40.40
2018-05-08T15:07:57.377Z,39.90
2018-05-08T15:10:25.130Z,40.30
2018-05-08T15:12:52.728Z,41.00
2018-05-08T15:15:20.252Z,41.00
2018-05-08T15:17:47.744Z,40.50
2018-05-08T15:20:15.548Z,41.80
2018-05-08T15:22:43.146Z,42.00
2018-05-08T15:25:11.710Z,41.10
2018-05-08T15:27:39.977Z,41.50
2018-05-08T15:30:07.572Z,42.10
2018-05-08T15:32:36.994Z,41.60
2018-05-08T15:35:04.637Z,41.60
2018-05-08T15:37:33.660Z,40.70
2018-05-08T15:40:02.334Z,41.30
2018-05-08T15:42:30.288Z,41.30
2018-05-08T15:45:07.903Z,41.00
2018-05-08T15:50:11.307Z,39.80
2018-05-08T15:52:38.828Z,40.60
2018-05-08T15:55:06.390Z,41.10
2018-05-08T15:57:33.952Z,40.80
2018-05-08T16:00:01.464Z,40.20
2018-05-08T16:02:29.039Z,40.00
2018-05-08T16:04:57.356Z,39.50
2018-05-08T16:07:24.888Z,39.50
2018-05-08T16:09:52.388Z,39.60
2018-05-08T16:12:20.712Z,39.30
2018-05-08T16:14:48.230Z,39.30
2018-05-08T16:17:15.754Z,39.60
2018-05-08T16:19:43.269Z,39.50
2018-05-08T16:22:10.855Z,40.20
2018-05-08T16:24:39.211Z,39.60
2018-05-08T16:27:06.833Z,39.60
2018-05-08T16:29:34.362Z,40.00
2018-05-08T16:32:01.927Z,40.20
2018-05-08T16:34:29.442Z,39.40
2018-05-08T16:36:57.770Z,39.60
2018-05-08T16:39:25.405Z,39.50
2018-05-08T16:41:52.888Z,39.60
2018-05-08T16:44:20.495Z,39.40
2018-05-08T16:46:48.026Z,39.60
2018-05-08T16:49:15.530Z,39.10
2018-05-08T16:51:43.143Z,38.80
2018-05-08T16:54:10.684Z,39.20
2018-05-08T16:56:38.211Z,39.60
2018-05-08T16:59:05.790Z,40.60
2018-05-08T17:01:33.321Z,40.70
2018-05-08T17:04:01.041Z,40.10
2018-05-08T17:06:29.104Z,40.60
2018-05-08T17:08:56.665Z,40.30
2018-05-08T17:11:25.168Z,41.40
2018-05-08T17:13:53.465Z,41.20
2018-05-08T17:16:21.026Z,41.20
2018-05-08T17:18:49.540Z,41.60
2018-05-08T17:21:17.350Z,41.60
2018-05-08T17:23:44.864Z,40.20
2018-05-08T17:26:12.488Z,41.60
2018-05-08T17:28:40.037Z,43.10
2018-05-08T17:31:07.573Z,42.60
2018-05-08T17:33:45.879Z,43.20
2018-05-08T17:36:13.608Z,41.70
2018-05-08T17:38:41.488Z,43.30
2018-05-08T17:41:09.079Z,43.30
2018-05-08T17:43:36.636Z,43.00
2018-05-08T17:46:04.129Z,42.80
2018-05-08T17:48:32.602Z,43.30
2018-05-08T17:51:00.145Z,44.10
2018-05-08T17:53:27.743Z,43.60
2018-05-08T17:55:55.272Z,41.30
2018-05-08T17:58:23.079Z,41.00
2018-05-08T18:00:51.637Z,41.10
2018-05-08T18:03:19.464Z,41.00
2018-05-08T18:05:47.201Z,41.40
2018-05-08T18:08:15.568Z,42.40
2018-05-08T18:10:43.277Z,42.40
2018-05-08T18:13:10.875Z,43.30
2018-05-08T18:15:40.271Z,43.70
2018-05-08T18:18:08.664Z,44.30
2018-05-08T18:20:36.323Z,44.30
2018-05-08T18:23:13.008Z,45.20
2018-05-08T18:25:40.679Z,46.20
2018-05-08T18:28:10.487Z,46.50
2018-05-08T18:30:39.464Z,47.20
2018-05-08T18:33:07.285Z,50.30
2018-05-08T18:35:34.980Z,50.40
2018-05-08T18:38:02.552Z,50.00
2018-05-08T18:40:30.202Z,53.70
2018-05-08T18:42:57.908Z,55.50
2018-05-08T18:45:25.466Z,57.80
2018-05-08T18:47:53.090Z,60.90
2018-05-08T18:50:20.648Z,60.10
2018-05-08T18:52:48.283Z,62.70
2018-05-08T18:55:15.963Z,64.80
2018-05-08T18:57:43.556Z,66.60
2018-05-08T19:00:16.793Z,68.20
2018-05-08T19:02:44.399Z,68.80
2018-05-08T19:05:12.089Z,69.30
2018-05-08T19:07:39.695Z,72.70
2018-05-08T19:10:08.051Z,73.20
2018-05-08T19:12:35.765Z,73.20
2018-05-08T19:15:10.797Z,74.60
2018-05-08T19:17:39.100Z,75.90
2018-05-08T19:20:07.444Z,81.20
2018-05-08T19:22:35.762Z,81.30
2018-05-08T19:25:03.419Z,83.20
2018-05-08T19:27:31.086Z,83.40
2018-05-08T19:30:04.483Z,86.00
2018-05-08T19:32:32.054Z,86.20
2018-05-08T19:35:05.267Z,90.40
2018-05-08T19:40:38.496Z,91.80
2018-05-08T19:43:06.091Z,93.30
2018-05-08T19:45:33.669Z,94.90
2018-05-08T19:48:01.222Z,97.40
2018-05-08T19:50:28.771Z,99.10
2018-05-08T19:52:56.313Z,99.70
2018-05-08T19:55:24.621Z,99.90
2018-05-08T19:57:52.220Z,99.90
2018-05-08T20:00:19.764Z,99.90
2018-05-08T20:02:47.332Z,99.90
2018-05-08T20:05:14.867Z,99.90
2018-05-08T20:07:42.425Z,99.90
2018-05-08T20:10:09.959Z,99.90
2018-05-08T20:12:37.548Z,99.90
2018-05-08T20:15:05.097Z,99.90
2018-05-08T20:17:32.652Z,99.90
2018-05-08T20:20:00.953Z,99.90
2018-05-08T20:22:28.503Z,99.90
2018-05-08T20:24:56.038Z,99.90
2018-05-08T20:27:23.612Z,99.90
2018-05-08T20:29:51.153Z,99.90
2018-05-08T20:32:18.745Z,99.90
2018-05-08T20:34:46.308Z,99.90
2018-05-08T20:37:13.872Z,99.90
2018-05-08T20:39:41.425Z,99.90
2018-05-08T20:42:09.765Z,99.90
2018-05-08T20:44:37.319Z,99.90
2018-05-08T20:47:04.899Z,99.90
2018-05-08T20:49:32.492Z,99.90
2018-05-08T20:52:00.044Z,99.90
2018-05-08T20:54:27.623Z,99.90
2018-05-08T20:56:55.198Z,99.90
2018-05-08T20:59:22.777Z,99.90
2018-05-08T21:01:50.353Z,99.90
2018-05-08T21:04:17.892Z,99.90
2018-05-08T21:06:45.440Z,99.90
2018-05-08T21:09:13.060Z,99.90
2018-05-08T21:11:40.579Z,99.90
2018-05-08T21:14:08.968Z,99.90
2018-05-08T21:16:37.306Z,99.90
2018-05-08T21:19:04.877Z,99.90
2018-05-08T21:21:32.493Z,99.90
2018-05-08T21:24:00.029Z,99.90
2018-05-08T21:26:37.455Z,99.90
2018-05-08T21:29:04.999Z,99.90
2018-05-08T21:31:32.535Z,99.90
2018-05-08T21:34:00.075Z,99.90
2018-05-08T21:36:27.645Z,99.90
2018-05-08T21:38:55.224Z,99.90
2018-05-08T21:41:22.796Z,99.90
2018-05-08T21:43:50.353Z,99.90
2018-05-08T21:46:17.892Z,99.90
2018-05-08T21:48:45.464Z,99.90
2018-05-08T21:51:13.000Z,99.90
2018-05-08T21:53:40.556Z,99.90
2018-05-08T21:56:08.110Z,99.90
2018-05-08T21:58:35.702Z,99.90
2018-05-08T22:01:03.261Z,99.90
2018-05-08T22:03:30.815Z,99.90
2018-05-08T22:05:58.373Z,99.90
2018-05-08T22:08:25.917Z,99.90
2018-05-08T22:10:53.432Z,99.90
2018-05-08T22:13:21.011Z,99.90
2018-05-08T22:15:48.555Z,99.90
2018-05-08T22:18:16.128Z,99.90
2018-05-08T22:20:43.709Z,99.90
2018-05-08T22:23:11.256Z,99.90
2018-05-08T22:25:38.802Z,99.90
2018-05-08T22:28:07.164Z,99.90
2018-05-08T22:30:34.743Z,99.90
2018-05-08T22:33:02.321Z,99.90
2018-05-08T22:35:29.877Z,99.90
2018-05-08T22:37:57.452Z,99.90
2018-05-08T22:40:24.976Z,99.90
2018-05-08T22:42:52.531Z,99.90
2018-05-08T22:45:20.879Z,99.90
2018-05-08T22:47:48.475Z,99.90
2018-05-08T22:50:16.029Z,99.90
2018-05-08T22:52:43.545Z,99.90
2018-05-08T22:55:11.901Z,99.90
2018-05-08T22:57:39.479Z,99.90
2018-05-08T23:00:07.016Z,99.90
2018-05-08T23:02:34.597Z,99.90
2018-05-08T23:05:02.204Z,99.90
2018-05-08T23:07:29.758Z,99.90
2018-05-08T23:09:57.335Z,99.90
2018-05-08T23:12:26.870Z,99.90
2018-05-08T23:14:54.430Z,99.90
2018-05-08T23:17:22.773Z,99.90
2018-05-08T23:19:50.356Z,99.90
2018-05-08T23:22:17.912Z,99.90
2018-05-08T23:24:45.527Z,99.90
2018-05-08T23:27:13.102Z,99.90
2018-05-08T23:29:40.677Z,99.90
2018-05-08T23:32:08.233Z,99.90
2018-05-08T23:34:35.850Z,99.90
2018-05-08T23:37:04.185Z,99.90
2018-05-08T23:39:31.780Z,99.90
2018-05-08T23:41:59.302Z,99.90
2018-05-08T23:44:26.851Z,99.90
2018-05-08T23:46:54.447Z,99.90
2018-05-08T23:49:22.042Z,99.90
2018-05-08T23:51:49.603Z,99.90
2018-05-08T23:54:17.135Z,99.90
2018-05-08T23:56:44.729Z,99.90
2018-05-08T23:59:13.033Z,99.90
